KJAX

Jacksonville International Airport

Jacksonville, Florida, USA
METAR KJAX 191556Z 03005KT 6SM BR OVC003 17/16 A3016 RMK AO2 SLP215 T01720161
Observed Flight Rules
Nov-19 @ 15:56 UTC (21 minutes ago) Instrument Flight Rules
Wind Visibility Clouds Conditions
30° at 5 knots 6 miles
  • Overcast at 300' AGL
  • Mist
Temperatures Readings
Current 17°C / 63°F
Dewpoint 16°C / 61°F
Humidity 94%
Altimeter 30.16" Hg
Pressure 1021.5 hPa
Elevation 10
METAR KJAX 191556Z 03005KT 6SM BR OVC003 17/16 A3016 RMK AO2 SLP215 T01720161
Observed Flight Rules
Nov-19 @ 15:56 UTC
(21 minutes ago)
LIFR
Wind Visibility
30° at 5 knots 6 miles
Clouds
  • Overcast at 300' AGL
Conditions
  • Mist
Temperature Dewpoint
17°C / 63°F 16°C / 61°F
Humidity Altimeter Pressure
94% 30.16" Hg 1021.5 hPa